createdAt,value
2017-09-20T00:00:09.614Z,64.47
2017-09-20T00:02:37.945Z,55.63
2017-09-20T00:05:05.645Z,53.87
2017-09-20T00:07:33.909Z,63.03
2017-09-20T00:10:01.399Z,63.17
2017-09-20T00:12:28.947Z,53.87
2017-09-20T00:14:57.246Z,51.03
2017-09-20T00:17:24.954Z,54.20
2017-09-20T00:19:52.444Z,48.67
2017-09-20T00:22:20.676Z,50.20
2017-09-20T00:24:48.166Z,48.27
2017-09-20T00:27:17.312Z,51.80
2017-09-20T00:29:44.796Z,48.47
2017-09-20T00:32:12.313Z,45.87
2017-09-20T00:34:39.814Z,53.23
2017-09-20T00:37:07.355Z,55.70
2017-09-20T00:39:34.837Z,48.33
2017-09-20T00:42:02.369Z,49.37
2017-09-20T00:44:29.846Z,54.73
2017-09-20T00:46:57.362Z,57.33
2017-09-20T00:49:24.846Z,58.47
2017-09-20T00:51:52.317Z,59.47
2017-09-20T00:54:19.829Z,54.37
2017-09-20T00:56:47.317Z,56.10
2017-09-20T00:59:14.868Z,60.20
2017-09-20T01:01:42.412Z,57.90
2017-09-20T01:04:09.909Z,62.63
2017-09-20T01:06:37.577Z,64.23
2017-09-20T01:09:05.062Z,71.30
2017-09-20T01:11:33.328Z,70.50
2017-09-20T01:14:01.570Z,85.27
2017-09-20T01:16:29.037Z,62.20
2017-09-20T01:18:57.357Z,78.63
2017-09-20T01:21:37.671Z,75.43
2017-09-20T01:24:05.254Z,66.90
2017-09-20T01:26:33.568Z,74.63
2017-09-20T01:29:01.025Z,66.90
2017-09-20T01:31:28.549Z,74.77
2017-09-20T01:33:58.118Z,76.10
2017-09-20T01:36:25.804Z,69.73
2017-09-20T01:38:53.292Z,81.70
2017-09-20T01:41:20.766Z,72.40
2017-09-20T01:43:48.337Z,90.63
2017-09-20T01:46:15.829Z,78.00
2017-09-20T01:48:44.101Z,89.90
2017-09-20T01:51:11.603Z,99.53
2017-09-20T01:53:39.100Z,103.03
2017-09-20T01:56:06.621Z,98.63
2017-09-20T01:58:34.115Z,89.53
2017-09-20T02:01:02.040Z,83.77
2017-09-20T02:03:29.548Z,89.53
2017-09-20T02:05:57.383Z,100.70
2017-09-20T02:08:24.909Z,89.03
2017-09-20T02:10:53.709Z,84.93
2017-09-20T02:13:21.478Z,76.97
2017-09-20T02:15:48.950Z,80.90
2017-09-20T02:18:16.465Z,88.13
2017-09-20T02:20:43.940Z,81.70
2017-09-20T02:23:12.464Z,85.17
2017-09-20T02:25:40.420Z,84.93
2017-09-20T02:28:07.890Z,92.33
2017-09-20T02:30:35.370Z,84.40
2017-09-20T02:33:02.846Z,92.83
2017-09-20T02:35:30.325Z,81.70
2017-09-20T02:37:58.712Z,84.17
2017-09-20T02:40:26.297Z,98.80
2017-09-20T02:42:53.871Z,83.47
2017-09-20T02:45:21.347Z,88.40
2017-09-20T02:47:49.183Z,82.97
2017-09-20T02:50:16.878Z,87.93
2017-09-20T02:52:44.380Z,102.77
2017-09-20T02:55:11.860Z,89.03
2017-09-20T02:57:39.465Z,87.30
2017-09-20T03:00:06.975Z,103.47
2017-09-20T03:02:34.488Z,94.53
2017-09-20T03:05:02.738Z,91.93
2017-09-20T03:07:30.222Z,99.23
2017-09-20T03:09:58.469Z,105.07
2017-09-20T03:12:25.955Z,84.87
2017-09-20T03:14:54.439Z,95.80
2017-09-20T03:17:22.686Z,100.40
2017-09-20T03:19:50.194Z,107.30
2017-09-20T03:22:17.705Z,110.60
2017-09-20T03:24:45.217Z,119.20
2017-09-20T03:27:12.705Z,119.23
2017-09-20T03:29:40.168Z,108.77
2017-09-20T03:32:07.631Z,122.00
2017-09-20T03:34:36.626Z,122.80
2017-09-20T03:37:04.129Z,133.27
2017-09-20T03:39:32.145Z,126.00
2017-09-20T03:41:59.627Z,129.00
2017-09-20T03:44:27.195Z,123.23
2017-09-20T03:46:55.470Z,126.00
2017-09-20T03:49:23.773Z,137.40
2017-09-20T03:51:51.382Z,140.33
2017-09-20T03:54:18.872Z,117.20
2017-09-20T03:56:46.488Z,115.23
2017-09-20T03:59:14.026Z,101.17
2017-09-20T04:01:41.523Z,107.37
2017-09-20T04:04:09.196Z,100.80
2017-09-20T04:06:37.551Z,91.30
2017-09-20T04:09:05.039Z,106.10
2017-09-20T04:11:33.322Z,100.07
2017-09-20T04:14:01.606Z,97.80
2017-09-20T04:16:29.109Z,102.63
2017-09-20T04:18:56.915Z,101.10
2017-09-20T04:21:25.235Z,94.33
2017-09-20T04:23:52.756Z,105.10
2017-09-20T04:26:20.994Z,107.20
2017-09-20T04:28:48.486Z,105.50
2017-09-20T04:31:16.724Z,112.17
2017-09-20T04:33:44.375Z,102.67
2017-09-20T04:36:11.878Z,93.27
2017-09-20T04:38:40.111Z,117.27
2017-09-20T04:41:07.613Z,99.13
2017-09-20T04:43:35.845Z,103.50
2017-09-20T04:46:03.616Z,101.63
2017-09-20T04:48:31.099Z,103.63
2017-09-20T04:50:58.589Z,100.33
2017-09-20T04:53:26.180Z,113.77
2017-09-20T04:55:53.638Z,107.80
2017-09-20T04:58:21.350Z,100.47
2017-09-20T05:00:49.737Z,109.20
2017-09-20T05:03:17.540Z,96.03
2017-09-20T05:05:45.007Z,112.03
2017-09-20T05:08:12.520Z,104.03
2017-09-20T05:10:40.942Z,104.80
2017-09-20T05:13:08.462Z,135.43
2017-09-20T05:15:35.962Z,122.87
2017-09-20T05:18:03.519Z,97.23
2017-09-20T05:20:31.117Z,117.23
2017-09-20T05:22:59.647Z,126.73
2017-09-20T05:25:27.122Z,99.20
2017-09-20T05:27:54.659Z,109.47
2017-09-20T05:30:22.145Z,101.90
2017-09-20T05:32:49.653Z,98.07
2017-09-20T05:35:17.430Z,113.00
2017-09-20T05:37:44.914Z,101.00
2017-09-20T05:40:12.648Z,103.27
2017-09-20T05:42:40.161Z,90.53
2017-09-20T05:45:08.170Z,101.07
2017-09-20T05:47:35.919Z,116.20
2017-09-20T05:50:04.783Z,109.90
2017-09-20T05:52:33.030Z,112.33
2017-09-20T05:55:00.507Z,100.80
2017-09-20T05:57:28.007Z,100.87
2017-09-20T05:59:55.538Z,100.23
2017-09-20T06:02:23.054Z,129.17
2017-09-20T06:04:50.561Z,129.17
2017-09-20T06:07:18.078Z,101.37
2017-09-20T06:09:45.551Z,103.90
2017-09-20T06:12:13.039Z,91.17
2017-09-20T06:14:41.300Z,118.53
2017-09-20T06:17:09.646Z,92.63
2017-09-20T06:19:37.163Z,89.27
2017-09-20T06:22:05.477Z,108.30
2017-09-20T06:24:33.169Z,88.20
2017-09-20T06:27:01.447Z,88.30
2017-09-20T06:29:28.922Z,89.90
2017-09-20T06:31:57.197Z,88.60
2017-09-20T06:34:25.520Z,79.00
2017-09-20T06:36:53.001Z,88.67
2017-09-20T06:39:20.502Z,83.43
2017-09-20T06:41:48.714Z,79.37
2017-09-20T06:44:16.199Z,86.67
2017-09-20T06:46:45.200Z,86.77
2017-09-20T06:49:13.518Z,92.27
2017-09-20T06:51:41.046Z,92.50
2017-09-20T06:54:09.298Z,75.27
2017-09-20T06:56:36.923Z,69.80
2017-09-20T06:59:04.402Z,70.40
2017-09-20T07:01:31.965Z,67.40
2017-09-20T07:03:59.469Z,64.00
2017-09-20T07:06:27.699Z,61.73
2017-09-20T07:08:55.226Z,66.30
2017-09-20T07:11:22.734Z,59.53
2017-09-20T07:13:50.283Z,57.90
2017-09-20T07:16:17.748Z,66.83
2017-09-20T07:18:46.062Z,56.87
2017-09-20T07:21:14.300Z,63.07
2017-09-20T07:23:42.426Z,62.80
2017-09-20T07:26:10.719Z,73.77
2017-09-20T07:28:38.233Z,49.93
2017-09-20T07:31:06.527Z,55.07
2017-09-20T07:33:34.069Z,51.83
2017-09-20T07:36:02.345Z,65.87
2017-09-20T07:38:30.828Z,69.07
2017-09-20T07:40:59.515Z,54.97
2017-09-20T07:43:27.787Z,62.03
2017-09-20T07:45:56.067Z,52.70
2017-09-20T07:48:24.333Z,57.40
2017-09-20T07:50:52.667Z,54.10
2017-09-20T07:53:20.143Z,59.73
2017-09-20T07:55:47.643Z,58.17
2017-09-20T07:58:15.171Z,59.40
2017-09-20T08:00:42.648Z,57.17
2017-09-20T08:03:11.128Z,55.73
2017-09-20T08:05:39.415Z,54.40
2017-09-20T08:08:07.653Z,51.90
2017-09-20T08:10:35.147Z,45.70
2017-09-20T08:13:03.527Z,49.73
2017-09-20T08:15:31.256Z,41.53
2017-09-20T08:17:58.735Z,43.33
2017-09-20T08:20:27.027Z,42.03
2017-09-20T08:22:54.600Z,42.30
2017-09-20T08:25:22.109Z,45.10
2017-09-20T08:27:49.619Z,38.47
2017-09-20T08:30:17.077Z,42.87
2017-09-20T08:32:44.942Z,38.90
2017-09-20T08:35:12.501Z,49.57
2017-09-20T08:37:40.045Z,39.17
2017-09-20T08:40:08.288Z,43.77
2017-09-20T08:42:37.319Z,39.97
2017-09-20T08:45:04.818Z,40.13
2017-09-20T08:47:32.360Z,39.77
2017-09-20T08:50:00.163Z,36.97
2017-09-20T08:52:28.435Z,45.20
2017-09-20T08:54:56.630Z,35.83
2017-09-20T08:57:24.894Z,43.33
2017-09-20T08:59:53.171Z,31.40
2017-09-20T09:02:20.739Z,30.97
2017-09-20T09:04:49.611Z,33.00
2017-09-20T09:07:17.127Z,32.60
2017-09-20T09:09:44.626Z,31.50
2017-09-20T09:12:12.092Z,36.87
2017-09-20T09:14:40.566Z,29.57
2017-09-20T09:17:08.588Z,32.10
2017-09-20T09:19:36.083Z,32.53
2017-09-20T09:22:03.694Z,30.03
2017-09-20T09:24:31.174Z,22.30
2017-09-20T09:26:58.777Z,33.90
2017-09-20T09:29:27.045Z,27.23
2017-09-20T09:31:54.509Z,34.30
2017-09-20T09:34:22.042Z,29.23
2017-09-20T09:36:49.514Z,32.70
2017-09-20T09:39:17.173Z,29.87
2017-09-20T09:41:44.653Z,28.50
2017-09-20T09:44:12.924Z,33.97
2017-09-20T09:46:40.496Z,32.63
2017-09-20T09:49:08.758Z,28.13
2017-09-20T09:51:36.439Z,48.13
2017-09-20T09:54:04.803Z,30.50
2017-09-20T09:56:33.041Z,28.00
2017-09-20T09:59:00.556Z,22.60
2017-09-20T10:01:28.030Z,27.97
2017-09-20T10:03:55.808Z,28.87
2017-09-20T10:06:23.273Z,25.63
2017-09-20T10:08:50.765Z,19.67
2017-09-20T10:11:19.047Z,20.83
2017-09-20T10:13:47.342Z,24.80
2017-09-20T10:16:15.790Z,20.40
2017-09-20T10:18:43.315Z,26.57
2017-09-20T10:21:10.779Z,23.63
2017-09-20T10:23:38.259Z,22.03
2017-09-20T10:26:05.736Z,21.03
2017-09-20T10:28:33.988Z,18.20
2017-09-20T10:31:01.462Z,16.60
2017-09-20T10:33:28.967Z,17.87
2017-09-20T10:35:56.456Z,20.30
2017-09-20T10:38:23.925Z,20.47
2017-09-20T10:40:52.437Z,11.93
2017-09-20T10:43:19.947Z,15.17
2017-09-20T10:45:47.417Z,12.60
2017-09-20T10:48:14.886Z,23.13
2017-09-20T10:50:43.977Z,15.20
2017-09-20T10:53:11.646Z,16.47
2017-09-20T10:55:39.258Z,15.83
2017-09-20T10:58:06.769Z,14.53
2017-09-20T11:00:34.279Z,18.03
2017-09-20T11:03:01.778Z,14.93
2017-09-20T11:05:29.342Z,12.40
2017-09-20T11:07:57.578Z,13.77
2017-09-20T11:10:25.067Z,11.77
2017-09-20T11:12:52.542Z,10.67
2017-09-20T11:15:20.775Z,12.33
2017-09-20T11:17:48.283Z,12.00
2017-09-20T11:20:15.848Z,8.03
2017-09-20T11:22:43.305Z,8.00
2017-09-20T11:25:10.807Z,10.27
2017-09-20T11:27:38.327Z,8.77
2017-09-20T11:30:06.092Z,12.87
2017-09-20T11:32:33.569Z,10.90
2017-09-20T11:35:01.873Z,8.93
2017-09-20T11:37:29.385Z,12.73
2017-09-20T11:39:57.770Z,6.60
2017-09-20T11:42:25.310Z,8.93
2017-09-20T11:44:53.716Z,6.70
2017-09-20T11:47:21.547Z,12.17
2017-09-20T11:49:49.797Z,8.90
2017-09-20T11:52:17.275Z,7.73
2017-09-20T11:54:45.546Z,7.57
2017-09-20T11:57:13.802Z,7.13
2017-09-20T11:59:41.268Z,6.37
2017-09-20T12:02:08.921Z,6.60
2017-09-20T12:04:36.442Z,7.80
2017-09-20T12:07:04.176Z,10.57
2017-09-20T12:09:32.422Z,5.87
2017-09-20T12:11:59.871Z,5.40
2017-09-20T12:14:27.367Z,6.50
2017-09-20T12:16:55.748Z,10.13
2017-09-20T12:19:23.572Z,5.60
2017-09-20T12:21:51.042Z,5.90
2017-09-20T12:24:19.306Z,9.83
2017-09-20T12:26:46.819Z,9.70
2017-09-20T12:29:14.301Z,7.27
2017-09-20T12:31:41.818Z,5.57
2017-09-20T12:34:09.672Z,4.20
2017-09-20T12:36:37.206Z,5.40
2017-09-20T12:39:04.698Z,4.77
2017-09-20T12:41:33.014Z,4.57
2017-09-20T12:44:00.508Z,8.77
2017-09-20T12:46:27.998Z,9.13
2017-09-20T12:48:55.523Z,6.70
2017-09-20T12:51:23.887Z,7.33
2017-09-20T12:53:51.386Z,12.10
2017-09-20T12:56:19.630Z,9.80
2017-09-20T12:58:47.130Z,5.97
2017-09-20T13:01:14.716Z,7.73
2017-09-20T13:03:42.235Z,13.00
2017-09-20T13:06:10.576Z,7.40
2017-09-20T13:08:38.051Z,10.50
2017-09-20T13:11:05.500Z,7.70
2017-09-20T13:13:33.023Z,5.97
2017-09-20T13:16:00.535Z,6.73
2017-09-20T13:18:29.223Z,7.27
2017-09-20T13:20:57.468Z,5.50
2017-09-20T13:23:24.952Z,11.43
2017-09-20T13:25:53.190Z,7.13
2017-09-20T13:28:20.692Z,7.20
2017-09-20T13:30:49.021Z,9.27
2017-09-20T13:33:16.579Z,5.90
2017-09-20T13:35:44.768Z,7.07
2017-09-20T13:38:12.248Z,8.60
2017-09-20T13:40:39.755Z,5.63
2017-09-20T13:43:07.372Z,9.03
2017-09-20T13:45:35.635Z,8.00
2017-09-20T13:48:03.880Z,6.90
2017-09-20T13:50:31.348Z,13.70
2017-09-20T13:52:58.829Z,5.03
2017-09-20T13:55:26.353Z,7.10
2017-09-20T13:57:53.841Z,3.43
2017-09-20T14:00:21.331Z,6.23
2017-09-20T14:02:48.868Z,6.93
2017-09-20T14:05:16.413Z,6.50
2017-09-20T14:07:43.899Z,4.43
2017-09-20T14:10:12.140Z,6.87
2017-09-20T14:12:39.601Z,6.57
2017-09-20T14:15:07.074Z,7.70
2017-09-20T14:17:35.313Z,6.33
2017-09-20T14:20:03.025Z,4.97
2017-09-20T14:22:31.401Z,7.73
2017-09-20T14:24:59.679Z,5.30
2017-09-20T14:27:27.975Z,13.30
2017-09-20T14:29:55.456Z,9.90
2017-09-20T14:32:22.934Z,5.47
2017-09-20T14:34:50.839Z,8.73
2017-09-20T14:37:19.109Z,10.57
2017-09-20T14:39:46.601Z,5.00
2017-09-20T14:42:14.442Z,7.23
2017-09-20T14:44:41.993Z,7.50
2017-09-20T14:47:10.245Z,6.17
2017-09-20T14:49:38.019Z,8.00
2017-09-20T14:52:06.293Z,8.33
2017-09-20T14:54:34.374Z,7.20
2017-09-20T14:57:02.790Z,8.10
2017-09-20T14:59:30.340Z,5.80
2017-09-20T15:01:57.917Z,8.10
2017-09-20T15:04:44.659Z,31.13
2017-09-20T15:07:12.341Z,13.20
2017-09-20T15:09:40.805Z,6.07
2017-09-20T15:12:08.520Z,18.77
2017-09-20T15:14:36.040Z,5.10
2017-09-20T15:17:04.352Z,8.27
2017-09-20T15:19:32.003Z,6.43
2017-09-20T15:22:00.301Z,7.00
2017-09-20T15:24:27.769Z,7.97
2017-09-20T15:26:56.930Z,7.80
2017-09-20T15:29:24.450Z,12.83
2017-09-20T15:31:53.089Z,10.87
2017-09-20T15:34:20.845Z,8.70
2017-09-20T15:36:48.356Z,10.03
2017-09-20T15:39:16.508Z,5.27
2017-09-20T15:41:44.350Z,20.73
2017-09-20T15:44:11.869Z,7.87
2017-09-20T15:46:39.441Z,6.53
2017-09-20T15:49:08.025Z,12.20
2017-09-20T15:51:36.283Z,8.00
2017-09-20T15:54:03.786Z,5.43
2017-09-20T15:56:31.329Z,8.23
2017-09-20T15:58:58.841Z,13.13
2017-09-20T16:01:26.329Z,11.23
2017-09-20T16:03:54.604Z,7.37
2017-09-20T16:06:22.865Z,7.03
2017-09-20T16:08:50.373Z,5.47
2017-09-20T16:11:17.864Z,5.90
2017-09-20T16:13:45.512Z,4.80
2017-09-20T16:16:12.988Z,7.07
2017-09-20T16:18:52.891Z,11.53
2017-09-20T16:21:20.368Z,7.30
2017-09-20T16:23:47.867Z,10.73
2017-09-20T16:26:15.701Z,6.50
2017-09-20T16:28:43.352Z,7.83
2017-09-20T16:31:11.294Z,11.33
2017-09-20T16:33:38.785Z,8.50
2017-09-20T16:36:06.259Z,9.97
2017-09-20T16:38:33.947Z,8.50
2017-09-20T16:41:01.459Z,6.50
2017-09-20T16:43:29.219Z,10.23
2017-09-20T16:45:56.790Z,7.80
2017-09-20T16:48:24.297Z,5.67
2017-09-20T16:50:52.576Z,5.53
2017-09-20T16:53:20.802Z,7.90
2017-09-20T16:55:48.449Z,6.73
2017-09-20T16:58:18.198Z,6.97
2017-09-20T17:00:46.473Z,11.10
2017-09-20T17:03:13.991Z,11.90
2017-09-20T17:05:41.469Z,8.07
2017-09-20T17:08:09.268Z,11.50
2017-09-20T17:10:37.590Z,12.50
2017-09-20T17:13:05.076Z,8.50
2017-09-20T17:15:32.622Z,12.00
2017-09-20T17:18:00.937Z,7.73
2017-09-20T17:20:29.464Z,22.43
2017-09-20T17:22:57.040Z,12.67
2017-09-20T17:25:24.534Z,11.90
2017-09-20T17:27:52.049Z,17.70
2017-09-20T17:30:20.365Z,7.13
2017-09-20T17:32:48.038Z,20.43
2017-09-20T17:35:17.018Z,13.50
2017-09-20T17:37:44.696Z,13.80
2017-09-20T17:40:12.206Z,7.77
2017-09-20T17:42:39.849Z,9.90
2017-09-20T17:45:07.788Z,14.03
2017-09-20T17:47:36.221Z,8.23
2017-09-20T17:50:03.767Z,19.40
2017-09-20T17:52:31.356Z,12.13
2017-09-20T17:54:59.418Z,9.93
2017-09-20T17:57:27.007Z,8.10
2017-09-20T17:59:55.071Z,9.10
2017-09-20T18:02:22.541Z,8.53
2017-09-20T18:04:50.856Z,11.53
2017-09-20T18:07:18.410Z,10.00
2017-09-20T18:09:46.970Z,11.90
2017-09-20T18:12:14.527Z,17.43
2017-09-20T18:14:42.063Z,10.50
2017-09-20T18:17:09.579Z,10.77
2017-09-20T18:19:37.094Z,12.70
2017-09-20T18:22:05.578Z,13.03
2017-09-20T18:24:33.849Z,9.13
2017-09-20T18:27:01.501Z,14.33
2017-09-20T18:29:29.762Z,8.27
2017-09-20T18:31:57.248Z,9.43
2017-09-20T18:34:25.897Z,13.90
2017-09-20T18:36:53.350Z,12.37
2017-09-20T18:39:20.825Z,11.30
2017-09-20T18:41:48.335Z,27.50
2017-09-20T18:44:15.800Z,13.17
2017-09-20T18:46:43.278Z,10.57
2017-09-20T18:49:10.753Z,17.00
2017-09-20T18:51:38.260Z,14.57
2017-09-20T18:54:05.749Z,28.67
2017-09-20T18:56:33.243Z,21.53
2017-09-20T18:59:00.798Z,19.33
2017-09-20T19:01:29.066Z,22.10
2017-09-20T19:03:56.631Z,15.90
2017-09-20T19:06:24.165Z,16.60
2017-09-20T19:08:51.664Z,15.00
2017-09-20T19:11:20.343Z,28.23
2017-09-20T19:13:47.835Z,14.27
2017-09-20T19:16:15.364Z,12.40
2017-09-20T19:18:42.911Z,13.67
2017-09-20T19:21:11.183Z,19.93
2017-09-20T19:23:39.812Z,27.43
2017-09-20T19:26:07.428Z,14.03
2017-09-20T19:28:34.967Z,15.50
2017-09-20T19:31:02.459Z,18.70
2017-09-20T19:33:29.991Z,16.50
2017-09-20T19:35:58.048Z,12.63
2017-09-20T19:38:25.570Z,9.63
2017-09-20T19:40:53.219Z,14.63
2017-09-20T19:43:21.548Z,15.87
2017-09-20T19:45:49.006Z,13.17
2017-09-20T19:48:16.514Z,12.23
2017-09-20T19:50:43.991Z,12.57
2017-09-20T19:53:11.471Z,10.33
2017-09-20T19:55:39.115Z,12.10
2017-09-20T19:58:06.625Z,12.33
2017-09-20T20:00:37.756Z,10.50
2017-09-20T20:03:06.204Z,14.77
2017-09-20T20:05:33.856Z,20.37
2017-09-20T20:08:01.390Z,17.83
2017-09-20T20:10:28.913Z,13.43
2017-09-20T20:12:57.453Z,19.33
2017-09-20T20:15:24.979Z,18.47
2017-09-20T20:17:52.538Z,15.13
2017-09-20T20:20:20.981Z,13.00
2017-09-20T20:22:48.473Z,13.70
2017-09-20T20:25:17.272Z,15.10
2017-09-20T20:27:45.566Z,11.90
2017-09-20T20:30:13.034Z,14.10
2017-09-20T20:32:40.545Z,9.50
2017-09-20T20:35:08.815Z,12.60
2017-09-20T20:37:36.495Z,15.43
2017-09-20T20:40:06.105Z,15.97
2017-09-20T20:42:33.581Z,12.40
2017-09-20T20:45:01.097Z,12.37
2017-09-20T20:47:28.558Z,14.17
2017-09-20T20:49:58.009Z,19.03
2017-09-20T20:52:25.615Z,19.73
2017-09-20T20:54:53.124Z,15.77
2017-09-20T20:57:20.605Z,10.07
2017-09-20T20:59:48.098Z,10.87
2017-09-20T21:02:15.953Z,8.23
2017-09-20T21:04:43.424Z,17.50
2017-09-20T21:07:10.918Z,10.10
2017-09-20T21:09:40.316Z,11.00
2017-09-20T21:12:08.010Z,8.37
2017-09-20T21:14:35.954Z,14.53
2017-09-20T21:17:04.442Z,27.80
2017-09-20T21:19:31.904Z,10.77
2017-09-20T21:21:59.378Z,11.00
2017-09-20T21:24:26.914Z,12.43
2017-09-20T21:26:54.621Z,13.83
2017-09-20T21:29:22.367Z,18.70
2017-09-20T21:31:50.002Z,21.47
2017-09-20T21:34:17.513Z,9.50
2017-09-20T21:36:45.752Z,14.03
2017-09-20T21:39:13.461Z,11.37
2017-09-20T21:41:41.689Z,16.90
2017-09-20T21:44:09.189Z,10.33
2017-09-20T21:46:37.437Z,9.53
2017-09-20T21:49:04.896Z,16.53
2017-09-20T21:51:32.467Z,11.30
2017-09-20T21:53:59.976Z,10.70
2017-09-20T21:56:27.535Z,16.90
2017-09-20T21:58:55.035Z,44.90
2017-09-20T22:01:22.504Z,14.43
2017-09-20T22:03:50.761Z,11.17
2017-09-20T22:06:18.251Z,10.80
2017-09-20T22:08:46.590Z,15.73
2017-09-20T22:11:14.188Z,15.00
2017-09-20T22:13:42.418Z,7.90
2017-09-20T22:16:21.727Z,11.27
2017-09-20T22:19:01.138Z,12.30
2017-09-20T22:21:41.587Z,11.50
2017-09-20T22:24:21.781Z,18.00
2017-09-20T22:26:48.844Z,14.33
2017-09-20T22:29:16.329Z,12.90
2017-09-20T22:31:43.858Z,11.70
2017-09-20T22:34:11.361Z,9.53
2017-09-20T22:36:39.809Z,14.37
2017-09-20T22:39:07.526Z,9.63
2017-09-20T22:41:35.758Z,11.17
2017-09-20T22:44:03.249Z,10.40
2017-09-20T22:46:31.550Z,8.17
2017-09-20T22:48:59.132Z,11.97
2017-09-20T22:51:26.662Z,8.57
2017-09-20T22:53:54.187Z,16.40
2017-09-20T22:56:21.638Z,8.60
2017-09-20T22:58:50.211Z,28.10
2017-09-20T23:01:17.680Z,9.70
2017-09-20T23:03:45.364Z,14.90
2017-09-20T23:06:13.638Z,8.13
2017-09-20T23:08:41.892Z,10.53
2017-09-20T23:11:09.489Z,8.50
2017-09-20T23:13:36.937Z,11.20
2017-09-20T23:16:04.799Z,11.50
2017-09-20T23:18:33.033Z,11.33
2017-09-20T23:21:00.544Z,14.73
2017-09-20T23:23:28.050Z,13.23
2017-09-20T23:25:55.521Z,10.83
2017-09-20T23:28:23.185Z,11.87
2017-09-20T23:30:50.678Z,13.23
2017-09-20T23:33:18.130Z,12.40
2017-09-20T23:35:45.645Z,11.87
2017-09-20T23:38:13.138Z,17.80
2017-09-20T23:40:41.447Z,17.43
2017-09-20T23:43:08.946Z,9.87
2017-09-20T23:45:36.414Z,14.10
2017-09-20T23:48:04.715Z,10.83
2017-09-20T23:50:32.725Z,12.23
2017-09-20T23:53:00.648Z,16.50
2017-09-20T23:55:28.177Z,10.57
2017-09-20T23:57:55.692Z,14.80
